Time;durP1;ratioP1;P1;durP2;ratioP2;P2;SDS_P1;SDS_P2;PMS_P1;PMS_P2;Temp;Humidity;BMP_temperature;BMP_pressure;BME280_temperature;BME280_humidity;BME280_pressure;Samples;Min_cycle;Max_cycle;Signal;HPM_P1;HPM_P2
2023/10/26 00:00:20;;;;;;;2.60;1.17;;;;;;;0.89;51.47;99658.09;5049836;28;20039;-40
2023/10/26 00:02:46;;;;;;;3.78;1.20;;;;;;;0.95;51.45;99658.13;5032869;28;20135;-40
2023/10/26 00:05:12;;;;;;;3.20;1.30;;;;;;;0.90;51.65;99654.69;5030120;28;20037;-40
2023/10/26 00:07:37;;;;;;;8.75;1.48;;;;;;;0.89;51.35;99659.81;5033160;28;20049;-41
2023/10/26 00:10:04;;;;;;;1.45;0.88;;;;;;;0.94;51.31;99660.69;5033822;28;20540;-40
2023/10/26 00:12:30;;;;;;;4.07;1.20;;;;;;;0.80;51.34;99648.69;5034852;28;20567;-41
2023/10/26 00:14:56;;;;;;;4.05;1.05;;;;;;;0.62;51.22;99615.34;5046395;28;20075;-40
2023/10/26 00:17:22;;;;;;;3.53;1.10;;;;;;;0.61;50.87;99607.66;5026797;28;20055;-41
2023/10/26 00:19:48;;;;;;;2.97;1.10;;;;;;;0.66;50.80;99627.31;5051040;28;20102;-41
2023/10/26 00:22:13;;;;;;;3.58;1.02;;;;;;;0.74;50.58;99658.03;5046281;28;20634;-42
2023/10/26 00:24:39;;;;;;;1.48;0.88;;;;;;;0.69;50.34;99650.31;5030582;28;20045;-40
2023/10/26 00:27:05;;;;;;;1.88;1.02;;;;;;;0.72;50.33;99652.06;5030836;28;20041;-41
2023/10/26 00:29:31;;;;;;;1.60;0.88;;;;;;;0.70;50.65;99646.94;5034280;28;20045;-41
2023/10/26 00:31:57;;;;;;;3.25;1.00;;;;;;;0.73;50.45;99654.59;5032204;28;20558;-40
2023/10/26 00:34:23;;;;;;;3.80;0.90;;;;;;;0.83;50.33;99643.59;5033050;28;20447;-41
2023/10/26 00:36:49;;;;;;;6.50;1.30;;;;;;;1.00;50.20;99643.63;5049288;28;20041;-40
2023/10/26 00:39:15;;;;;;;2.80;0.90;;;;;;;0.95;50.27;99632.53;5032721;28;20071;-41
2023/10/26 00:41:41;;;;;;;3.90;1.45;;;;;;;0.99;50.50;99636.81;5024845;28;20158;-39
2023/10/26 00:44:07;;;;;;;1.73;1.00;;;;;;;1.01;50.19;99635.09;5033408;28;20136;-40
2023/10/26 00:46:35;;;;;;;1.92;1.10;;;;;;;1.04;50.15;99637.69;5034863;28;20527;-39
2023/10/26 00:49:01;;;;;;;1.60;1.10;;;;;;;0.95;50.49;99635.06;5051781;28;20539;-39
2023/10/26 00:51:27;;;;;;;5.15;1.15;;;;;;;1.01;50.22;99642.78;5031091;28;20793;-40
2023/10/26 00:53:54;;;;;;;2.00;1.15;;;;;;;0.89;50.27;99637.59;5025934;28;20037;-40
2023/10/26 00:56:20;;;;;;;5.45;1.35;;;;;;;0.94;50.31;99629.97;5033136;28;20432;-40
2023/10/26 00:58:47;;;;;;;4.13;1.25;;;;;;;0.93;50.32;99626.56;5048468;28;20073;-41
2023/10/26 01:01:14;;;;;;;1.45;0.90;;;;;;;0.88;50.26;99642.75;5048105;28;20049;-40
2023/10/26 01:03:41;;;;;;;7.60;1.13;;;;;;;0.91;50.28;99628.25;5032203;28;20038;-40
2023/10/26 01:06:08;;;;;;;2.22;1.10;;;;;;;0.98;49.87;99631.69;5048161;28;20048;-40
2023/10/26 01:08:35;;;;;;;2.13;1.23;;;;;;;0.92;49.94;99622.28;5031367;28;20048;-40
2023/10/26 01:11:01;;;;;;;2.03;1.30;;;;;;;0.83;50.06;99628.25;5026635;28;20056;-40
2023/10/26 01:13:29;;;;;;;2.17;1.40;;;;;;;0.80;49.85;99628.22;5041626;28;20480;-41
2023/10/26 01:15:55;;;;;;;2.28;1.05;;;;;;;0.77;50.19;99625.66;5013889;28;20056;-40
2023/10/26 01:18:22;;;;;;;2.13;1.15;;;;;;;0.76;50.29;99628.19;5014675;28;20135;-49
2023/10/26 01:20:49;;;;;;;1.73;1.25;;;;;;;0.83;49.98;99630.78;5046978;28;20480;-40
2023/10/26 01:23:14;;;;;;;3.75;1.20;;;;;;;0.89;50.41;99617.13;5035148;28;20040;-41
2023/10/26 01:25:40;;;;;;;4.60;1.17;;;;;;;1.00;49.90;99622.28;5030751;28;20406;-41
2023/10/26 01:28:07;;;;;;;1.90;1.20;;;;;;;1.01;50.13;99626.56;5031732;28;20090;-41
2023/10/26 01:30:34;;;;;;;2.30;1.15;;;;;;;0.78;49.84;99589.00;5048172;28;20067;-41
2023/10/26 01:33:00;;;;;;;2.90;1.38;;;;;;;0.94;49.71;99618.03;5031681;28;20041;-40
2023/10/26 01:35:26;;;;;;;4.25;1.17;;;;;;;0.66;49.82;99580.41;5013418;28;20136;-41
2023/10/26 01:37:53;;;;;;;3.33;1.10;;;;;;;0.92;50.09;99616.31;5045535;28;20056;-40
2023/10/26 01:40:19;;;;;;;3.92;1.20;;;;;;;1.01;49.84;99624.88;5031124;28;20044;-41
2023/10/26 01:42:45;;;;;;;1.75;1.10;;;;;;;1.08;49.90;99618.94;5031538;28;20517;-41
2023/10/26 01:45:11;;;;;;;1.67;1.13;;;;;;;1.10;50.19;99624.88;5048898;28;20052;-40
2023/10/26 01:47:37;;;;;;;1.30;0.98;;;;;;;1.07;49.52;99624.03;5041213;28;20036;-40
2023/10/26 01:50:04;;;;;;;2.95;1.23;;;;;;;1.05;50.06;99620.59;5023083;28;20077;-40
2023/10/26 01:52:31;;;;;;;2.35;1.05;;;;;;;1.04;49.59;99621.47;5029313;28;20036;-39
2023/10/26 01:54:57;;;;;;;8.93;1.13;;;;;;;0.88;49.84;99615.47;5045941;28;20043;-40
2023/10/26 01:57:23;;;;;;;3.08;1.40;;;;;;;0.82;49.63;99610.31;5029523;28;20145;-39
2023/10/26 01:59:49;;;;;;;1.55;1.02;;;;;;;0.90;50.10;99607.75;5032144;28;20125;-40
2023/10/26 02:02:14;;;;;;;3.97;1.10;;;;;;;0.78;49.74;99577.91;5045172;28;20037;-40
2023/10/26 02:04:41;;;;;;;1.83;1.25;;;;;;;1.07;50.20;99617.22;5036820;28;20045;-40
2023/10/26 02:07:06;;;;;;;3.25;1.20;;;;;;;0.94;49.80;99583.91;5036068;28;20095;-40
2023/10/26 02:09:32;;;;;;;2.53;0.90;;;;;;;1.02;50.23;99612.94;5050432;28;20033;-41
2023/10/26 02:11:58;;;;;;;2.08;1.10;;;;;;;0.95;50.08;99611.19;5051598;28;20508;-41
2023/10/26 02:14:24;;;;;;;1.77;0.75;;;;;;;0.67;49.78;99557.38;5037040;28;20048;-40
2023/10/26 02:16:50;;;;;;;1.27;0.88;;;;;;;0.92;50.01;99622.28;5036564;28;20041;-39
2023/10/26 02:19:16;;;;;;;1.73;1.00;;;;;;;0.74;49.88;99612.81;5048373;28;20041;-39
2023/10/26 02:21:42;;;;;;;1.27;0.82;;;;;;;0.77;49.47;99612.84;5036549;28;20134;-41
2023/10/26 02:24:08;;;;;;;1.17;1.00;;;;;;;0.84;49.94;99617.13;5031025;28;20045;-39
2023/10/26 02:26:34;;;;;;;1.98;1.08;;;;;;;0.83;49.79;99606.91;5043547;28;20072;-41
2023/10/26 02:28:59;;;;;;;1.00;0.82;;;;;;;0.87;49.88;99618.00;5036253;28;20079;-40
2023/10/26 02:31:25;;;;;;;1.95;0.80;;;;;;;0.62;49.78;99601.72;5029049;28;20044;-41
2023/10/26 02:33:51;;;;;;;1.10;0.90;;;;;;;0.62;50.06;99597.44;5034195;28;20531;-39
2023/10/26 02:36:17;;;;;;;2.47;0.88;;;;;;;0.59;50.02;99596.56;5032834;28;20033;-41
2023/10/26 02:38:43;;;;;;;1.30;0.95;;;;;;;0.29;50.14;99552.13;5035183;28;20067;-40
2023/10/26 02:41:09;;;;;;;2.40;0.80;;;;;;;0.69;50.34;99606.84;5042218;28;20509;-39
2023/10/26 02:43:35;;;;;;;1.15;0.68;;;;;;;0.62;50.59;99594.88;5030224;28;20045;-42
2023/10/26 02:46:04;;;;;;;1.58;0.93;;;;;;;0.70;50.29;99611.13;5042177;28;20052;-40
2023/10/26 02:48:32;;;;;;;1.63;0.95;;;;;;;0.50;50.79;99564.13;5032750;28;20045;-40
2023/10/26 02:50:58;;;;;;;1.77;1.00;;;;;;;0.60;50.37;99591.47;5035417;28;20044;-39
2023/10/26 02:53:24;;;;;;;0.82;0.50;;;;;;;0.45;50.37;99581.16;5038927;28;20025;-39
2023/10/26 02:55:50;;;;;;;1.25;0.73;;;;;;;0.48;50.45;99606.75;5038348;28;20103;-39
2023/10/26 02:58:16;;;;;;;2.70;0.95;;;;;;;0.47;50.45;99610.19;5050436;28;20045;-40
2023/10/26 03:00:42;;;;;;;1.00;0.73;;;;;;;0.47;50.89;99586.31;5031147;28;20044;-40
2023/10/26 03:03:08;;;;;;;2.20;1.00;;;;;;;0.67;50.59;99600.88;5042393;28;20036;-40
2023/10/26 03:05:35;;;;;;;1.77;0.85;;;;;;;0.69;50.84;99583.81;5035354;28;20095;-40
2023/10/26 03:08:01;;;;;;;1.33;0.90;;;;;;;0.68;50.81;99604.28;5047727;28;20037;-40
2023/10/26 03:10:28;;;;;;;1.23;0.70;;;;;;;0.68;50.97;99604.28;5032784;28;20425;-39
2023/10/26 03:12:53;;;;;;;5.68;1.75;;;;;;;0.50;50.98;99564.13;5045437;28;20102;-40
2023/10/26 03:15:19;;;;;;;1.73;1.02;;;;;;;0.79;50.85;99594.94;5050313;28;20041;-41
2023/10/26 03:17:45;;;;;;;1.55;0.88;;;;;;;0.70;50.87;99595.75;5032514;28;20049;-41
2023/10/26 03:20:11;;;;;;;1.92;1.05;;;;;;;0.57;50.80;99595.72;5049964;28;20570;-40
2023/10/26 03:22:37;;;;;;;2.38;1.63;;;;;;;0.46;50.97;99588.00;5032339;28;20041;-40
2023/10/26 03:25:05;;;;;;;3.65;1.17;;;;;;;0.29;51.27;99558.94;5042999;28;20098;-41
2023/10/26 03:27:31;;;;;;;2.42;1.10;;;;;;;0.53;51.48;99586.31;5033848;28;20477;-41
2023/10/26 03:29:57;;;;;;;2.25;1.23;;;;;;;0.51;51.65;99583.75;5033294;28;20496;-41
2023/10/26 03:32:22;;;;;;;2.70;1.30;;;;;;;0.39;51.94;99576.88;5030267;28;20140;-40
2023/10/26 03:34:48;;;;;;;4.50;1.20;;;;;;;0.19;51.55;99581.03;5034470;28;20144;-42
2023/10/26 03:37:16;;;;;;;5.00;1.40;;;;;;;-0.04;51.77;99557.03;5038434;28;20075;-40
2023/10/26 03:39:41;;;;;;;2.53;1.05;;;;;;;-0.19;52.08;99544.19;5033294;28;20073;-41
2023/10/26 03:42:08;;;;;;;2.50;1.17;;;;;;;-0.01;52.44;99577.53;5019810;28;20464;-40
2023/10/26 03:44:33;;;;;;;2.65;1.13;;;;;;;-0.08;51.94;99580.88;5049464;28;20050;-39
2023/10/26 03:46:59;;;;;;;5.22;1.00;;;;;;;-0.17;52.26;99584.22;5035868;28;20528;-40
2023/10/26 03:49:25;;;;;;;2.38;1.17;;;;;;;-0.21;52.25;99573.97;5047373;28;20136;-41
2023/10/26 03:51:51;;;;;;;4.88;1.10;;;;;;;-0.49;52.62;99538.03;5032361;28;20037;-41
2023/10/26 03:54:20;;;;;;;1.77;0.90;;;;;;;-0.38;52.44;99581.53;5045878;28;20041;-40
2023/10/26 03:56:46;;;;;;;1.95;1.20;;;;;;;-0.53;52.71;99572.03;5050143;28;20041;-40
2023/10/26 03:59:11;;;;;;;3.15;1.50;;;;;;;-0.71;53.27;99543.78;5047673;28;20048;-40
2023/10/26 04:01:37;;;;;;;2.90;1.15;;;;;;;-0.60;53.07;99570.28;5028382;28;20176;-40
2023/10/26 04:04:04;;;;;;;4.07;1.30;;;;;;;-0.60;53.33;99569.41;5034535;28;20136;-40
2023/10/26 04:06:30;;;;;;;2.35;1.33;;;;;;;-0.59;53.13;99572.00;5033627;28;20179;-41
2023/10/26 04:08:56;;;;;;;2.55;1.10;;;;;;;-0.60;53.30;99577.94;5048862;28;20041;-40
2023/10/26 04:11:24;;;;;;;5.78;1.30;;;;;;;-0.56;53.14;99568.59;5032977;28;20122;-40
2023/10/26 04:13:50;;;;;;;3.17;1.27;;;;;;;-0.51;53.20;99574.59;5040747;28;20535;-40
2023/10/26 04:16:16;;;;;;;6.97;1.40;;;;;;;-0.50;53.22;99577.16;5032748;28;20630;-40
2023/10/26 04:18:42;;;;;;;2.72;1.38;;;;;;;-0.67;53.24;99542.13;5029435;28;20083;-41
2023/10/26 04:21:08;;;;;;;3.28;1.73;;;;;;;-0.52;53.06;99576.28;5033862;28;20131;-40
2023/10/26 04:23:34;;;;;;;6.72;1.60;;;;;;;-0.47;53.62;99568.66;5034809;28;20045;-40
2023/10/26 04:26:00;;;;;;;2.10;1.25;;;;;;;-0.49;53.06;99562.69;5048673;28;20041;-41
2023/10/26 04:28:26;;;;;;;7.47;1.52;;;;;;;-0.39;53.42;99579.81;5033395;28;20119;-42
2023/10/26 04:30:53;;;;;;;5.00;1.60;;;;;;;-0.33;53.20;99568.78;5033422;28;20079;-38
2023/10/26 04:33:19;;;;;;;4.80;1.85;;;;;;;-0.21;53.13;99572.25;5033843;28;20493;-41
2023/10/26 04:35:45;;;;;;;6.55;1.80;;;;;;;-0.38;53.20;99535.56;5048481;28;20047;-40
2023/10/26 04:38:11;;;;;;;3.75;1.90;;;;;;;-0.15;53.23;99568.88;5029599;28;20426;-41
2023/10/26 04:40:38;;;;;;;5.15;1.90;;;;;;;-0.26;53.05;99537.34;5046490;28;20139;-41
2023/10/26 04:43:05;;;;;;;2.25;1.45;;;;;;;0.07;53.08;99577.56;5033164;28;20094;-39
2023/10/26 04:45:32;;;;;;;8.85;1.88;;;;;;;0.11;52.76;99572.47;5034869;28;20230;-40
2023/10/26 04:48:01;;;;;;;2.55;1.73;;;;;;;0.18;52.61;99568.25;5035584;28;20461;-40
2023/10/26 04:50:27;;;;;;;5.95;2.10;;;;;;;0.30;52.53;99569.19;5032624;28;20029;-41
2023/10/26 04:52:53;;;;;;;4.10;1.70;;;;;;;0.39;52.60;99555.56;5033157;28;20521;-41
2023/10/26 04:55:19;;;;;;;4.82;2.00;;;;;;;0.41;52.55;99559.00;5033088;28;20133;-40
2023/10/26 04:57:45;;;;;;;5.75;1.90;;;;;;;0.53;52.41;99564.13;5032787;28;20178;-40
2023/10/26 05:00:11;;;;;;;3.05;1.70;;;;;;;0.59;52.27;99560.75;5033532;28;20121;-41
2023/10/26 05:02:39;;;;;;;9.02;2.00;;;;;;;0.62;52.06;99566.75;5029322;28;20096;-40
2023/10/26 05:05:05;;;;;;;4.50;1.80;;;;;;;0.66;52.13;99571.03;5031812;28;20509;-41
2023/10/26 05:07:31;;;;;;;3.13;1.73;;;;;;;0.65;51.61;99574.44;5048178;28;20044;-40
2023/10/26 05:09:57;;;;;;;3.47;2.17;;;;;;;0.38;51.95;99539.38;5031597;28;20037;-40
2023/10/26 05:12:23;;;;;;;7.60;1.70;;;;;;;0.49;51.64;99570.09;5033337;28;20441;-41
2023/10/26 05:14:49;;;;;;;4.45;1.75;;;;;;;0.36;52.01;99555.56;5031908;28;20037;-41
2023/10/26 05:17:15;;;;;;;3.90;1.80;;;;;;;0.41;52.15;99556.44;5031137;28;20045;-43
2023/10/26 05:19:40;;;;;;;2.90;1.80;;;;;;;0.54;51.89;99549.66;5026893;28;20191;-40
2023/10/26 05:22:06;;;;;;;6.65;2.28;;;;;;;0.52;51.85;99551.38;5035742;28;20048;-40
2023/10/26 05:24:32;;;;;;;5.88;2.40;;;;;;;0.49;51.62;99534.28;5032655;28;20042;-41
2023/10/26 05:26:58;;;;;;;11.48;2.08;;;;;;;0.68;51.41;99558.25;5031958;28;20044;-40
2023/10/26 05:29:24;;;;;;;5.03;2.25;;;;;;;0.69;51.37;99550.56;5026427;28;20143;-41
2023/10/26 05:31:51;;;;;;;3.67;2.00;;;;;;;0.61;51.32;99552.25;5036664;28;20607;-40
2023/10/26 05:34:16;;;;;;;3.83;2.03;;;;;;;0.48;51.48;99547.06;5047069;28;20041;-40
2023/10/26 05:36:42;;;;;;;3.88;2.00;;;;;;;0.33;51.68;99543.59;5028747;28;20394;-41
2023/10/26 05:39:08;;;;;;;1.90;1.58;;;;;;;0.34;51.38;99547.88;5035301;28;20049;-40
2023/10/26 05:41:34;;;;;;;8.75;2.50;;;;;;;0.30;51.58;99545.31;5031081;28;20041;-41
2023/10/26 05:44:00;;;;;;;5.60;2.05;;;;;;;0.50;51.66;99548.78;5030199;28;20045;-41
2023/10/26 05:46:26;;;;;;;9.35;2.42;;;;;;;0.46;51.31;99544.53;5034723;28;20044;-40
2023/10/26 05:48:51;;;;;;;7.18;2.00;;;;;;;0.54;51.39;99542.84;5031934;28;20088;-39
2023/10/26 05:51:17;;;;;;;4.22;1.90;;;;;;;0.73;51.54;99539.47;5030976;28;20045;-40
2023/10/26 05:53:43;;;;;;;3.22;2.10;;;;;;;1.46;50.85;99541.31;5030998;28;20065;-39
2023/10/26 05:56:10;;;;;;;7.00;2.00;;;;;;;2.11;49.72;99551.44;5031340;28;20064;-41
2023/10/26 05:58:36;;;;;;;7.18;1.52;;;;;;;2.64;48.00;99546.13;5036630;28;20033;-40
2023/10/26 06:01:02;;;;;;;8.55;1.98;;;;;;;3.31;46.71;99543.13;5031728;28;20417;-39
2023/10/26 06:03:29;;;;;;;5.70;1.80;;;;;;;3.05;46.50;99545.88;5036838;28;20040;-41
2023/10/26 06:05:59;;;;;;;5.65;2.10;;;;;;;2.30;46.61;99542.00;5031986;28;20424;-41
2023/10/26 06:08:25;;;;;;;11.60;2.55;;;;;;;1.94;47.23;99537.81;5031016;28;20137;-40
2023/10/26 06:10:52;;;;;;;3.60;1.85;;;;;;;1.67;47.65;99546.41;5029997;28;20045;-40
2023/10/26 06:13:18;;;;;;;5.32;2.10;;;;;;;1.51;48.15;99502.03;5038777;28;20033;-41
2023/10/26 06:15:45;;;;;;;5.75;2.20;;;;;;;1.73;47.94;99536.13;5037326;28;20041;-41
2023/10/26 06:18:12;;;;;;;5.22;2.30;;;;;;;1.84;48.17;99536.13;5056313;28;20049;-40
2023/10/26 06:20:38;;;;;;;3.17;2.08;;;;;;;2.01;47.96;99535.22;5031688;28;20509;-40
2023/10/26 06:23:04;;;;;;;2.42;1.80;;;;;;;1.94;47.59;99537.81;5021488;28;20154;-40
2023/10/26 06:25:38;;;;;;;2.45;1.60;;;;;;;2.42;47.37;99506.88;5031060;28;20509;-39
2023/10/26 06:28:04;;;;;;;9.07;2.90;;;;;;;3.79;45.60;99524.75;5031866;28;20049;-41
2023/10/26 06:30:31;;;;;;;2.83;1.77;;;;;;;4.16;45.38;99527.78;5047519;28;20099;-40
2023/10/26 06:32:59;;;;;;;4.55;2.42;;;;;;;3.58;45.06;99470.97;5032125;28;20040;-40
2023/10/26 06:35:25;;;;;;;6.38;1.95;;;;;;;3.55;45.67;99537.81;5045614;28;20045;-40
2023/10/26 06:37:50;;;;;;;2.85;2.22;;;;;;;3.83;44.96;99535.84;5026266;28;20052;-40
2023/10/26 06:40:16;;;;;;;5.68;1.85;;;;;;;5.50;43.29;99524.19;5045645;28;20099;-40
2023/10/26 06:42:42;;;;;;;3.63;2.08;;;;;;;6.81;41.61;99526.88;5031744;28;20079;-40
2023/10/26 06:45:09;;;;;;;3.63;1.88;;;;;;;8.10;40.05;99536.69;5031858;28;20065;-40
2023/10/26 06:47:35;;;;;;;7.70;2.42;;;;;;;8.91;37.54;99533.50;5031116;28;20116;-40
2023/10/26 06:50:00;;;;;;;7.43;1.75;;;;;;;9.34;35.17;99507.09;5049626;28;20128;-40
2023/10/26 06:52:26;;;;;;;5.50;2.05;;;;;;;8.40;36.51;99504.78;5035516;28;20037;-40
2023/10/26 06:54:52;;;;;;;2.90;1.70;;;;;;;6.71;37.41;99525.38;5049887;28;20044;-40
2023/10/26 06:57:18;;;;;;;3.53;1.90;;;;;;;5.55;38.85;99493.16;5031302;28;20039;-40
2023/10/26 06:59:44;;;;;;;4.03;2.30;;;;;;;4.58;39.94;99531.56;5032330;28;20505;-39
2023/10/26 07:02:11;;;;;;;2.65;1.90;;;;;;;4.34;40.89;99525.88;5044305;28;20037;-40
2023/10/26 07:04:37;;;;;;;9.23;2.30;;;;;;;3.77;41.33;99531.59;5039353;28;20084;-41
2023/10/26 07:07:04;;;;;;;2.60;1.88;;;;;;;3.19;42.31;99525.25;5056540;28;20073;-40
2023/10/26 07:09:30;;;;;;;4.45;2.20;;;;;;;3.37;42.58;99543.94;5034472;28;20057;-42
2023/10/26 07:11:56;;;;;;;6.22;1.92;;;;;;;3.48;42.40;99537.88;5039386;28;20431;-40
2023/10/26 07:14:21;;;;;;;5.72;1.80;;;;;;;3.62;42.15;99546.31;5037434;28;20037;-40
2023/10/26 07:16:48;;;;;;;3.40;1.80;;;;;;;3.49;42.47;99530.16;5035351;28;20064;-41
2023/10/26 07:19:14;;;;;;;7.75;2.50;;;;;;;4.43;41.58;99533.47;5049179;28;20052;-41
2023/10/26 07:21:40;;;;;;;3.05;1.98;;;;;;;5.82;40.02;99528.81;5045191;28;20046;-40
2023/10/26 07:24:06;;;;;;;4.20;2.28;;;;;;;6.87;38.70;99500.91;5027856;28;20041;-40
2023/10/26 07:26:32;;;;;;;4.97;2.50;;;;;;;8.40;37.12;99530.69;5034073;28;20175;-40
2023/10/26 07:28:58;;;;;;;8.95;2.47;;;;;;;9.26;35.70;99529.81;5047756;28;20523;-40
2023/10/26 07:31:24;;;;;;;4.78;2.78;;;;;;;9.37;35.09;99521.69;5047713;28;20037;-40
2023/10/26 07:33:50;;;;;;;5.20;2.45;;;;;;;10.36;34.29;99531.38;5037381;28;20034;-41
2023/10/26 07:36:16;;;;;;;3.45;2.00;;;;;;;10.28;33.09;99533.38;5039388;28;20040;-44
2023/10/26 07:38:42;;;;;;;6.53;2.05;;;;;;;9.85;33.40;99524.44;5033055;28;20413;-41
2023/10/26 07:41:09;;;;;;;4.30;2.25;;;;;;;9.15;33.24;99503.41;5034807;28;20044;-39
2023/10/26 07:43:35;;;;;;;5.57;2.03;;;;;;;7.92;33.85;99499.16;5017597;28;20573;-39
2023/10/26 07:46:01;;;;;;;4.63;2.33;;;;;;;7.06;35.20;99507.38;5036809;28;20135;-43
2023/10/26 07:48:28;;;;;;;7.30;1.95;;;;;;;7.17;35.58;99510.53;5059401;28;20048;-40
2023/10/26 07:50:55;;;;;;;4.47;2.40;;;;;;;7.65;35.23;99521.44;5051031;28;20059;-41
2023/10/26 07:53:21;;;;;;;3.65;1.90;;;;;;;7.49;34.70;99506.31;5036574;28;20125;-40
2023/10/26 07:55:47;;;;;;;8.10;2.35;;;;;;;7.02;35.22;99510.03;5052451;28;20579;-40
2023/10/26 07:58:14;;;;;;;8.40;2.80;;;;;;;6.74;35.81;99509.81;5053324;28;20052;-41
2023/10/26 08:00:40;;;;;;;3.78;2.20;;;;;;;6.34;36.23;99478.81;5051669;28;20531;-41
2023/10/26 08:03:06;;;;;;;6.85;2.28;;;;;;;6.33;36.48;99502.94;5051824;28;20036;-40
2023/10/26 08:05:31;;;;;;;4.65;2.10;;;;;;;6.40;36.49;99478.69;5048200;28;20132;-41
2023/10/26 08:07:58;;;;;;;5.72;2.63;;;;;;;6.93;36.01;99502.50;5033323;28;20052;-40
2023/10/26 08:10:24;;;;;;;7.50;2.40;;;;;;;6.52;35.88;99499.09;5049920;28;20075;-39
2023/10/26 08:12:51;;;;;;;7.22;2.60;;;;;;;5.84;37.00;99493.53;5051562;28;20391;-41
2023/10/26 08:15:18;;;;;;;5.50;3.13;;;;;;;5.82;37.39;99512.47;5049628;28;20584;-41
2023/10/26 08:17:43;;;;;;;5.43;2.50;;;;;;;5.80;37.44;99496.19;5054248;28;20040;-39
2023/10/26 08:20:10;;;;;;;5.20;2.53;;;;;;;5.74;37.23;99497.16;5052356;28;20086;-42
2023/10/26 08:22:36;;;;;;;9.15;3.20;;;;;;;5.63;37.68;99499.06;5031510;28;20194;-41
2023/10/26 08:25:03;;;;;;;5.72;2.85;;;;;;;5.72;37.51;99495.47;5034036;28;20575;-40
2023/10/26 08:27:31;;;;;;;7.00;3.80;;;;;;;5.99;37.14;99492.41;5030243;28;20049;-39
2023/10/26 08:29:57;;;;;;;6.95;3.35;;;;;;;5.93;37.52;99497.69;5021602;28;20420;-41
2023/10/26 08:32:23;;;;;;;7.10;2.75;;;;;;;5.79;37.66;99503.06;5032148;28;20045;-43
2023/10/26 08:34:49;;;;;;;6.82;2.10;;;;;;;5.63;37.99;99500.78;5034638;28;20044;-43
2023/10/26 08:37:17;;;;;;;6.20;2.30;;;;;;;5.50;37.84;99490.66;5046568;28;20069;-41
2023/10/26 08:39:43;;;;;;;6.80;2.63;;;;;;;5.81;38.19;99498.72;5034154;28;20029;-42
2023/10/26 08:42:10;;;;;;;4.72;2.58;;;;;;;5.77;37.33;99497.06;5035146;28;20147;-42
2023/10/26 08:44:36;;;;;;;6.78;2.92;;;;;;;5.83;37.14;99496.13;5048447;28;20049;-49
2023/10/26 08:47:03;;;;;;;5.30;2.40;;;;;;;6.08;37.42;99486.22;5027987;28;20264;-40
2023/10/26 08:49:30;;;;;;;4.10;2.55;;;;;;;6.86;37.06;99501.78;5042356;28;20072;-42
2023/10/26 08:51:57;;;;;;;3.30;2.20;;;;;;;7.10;36.26;99490.06;5033092;28;20162;-43
2023/10/26 08:54:23;;;;;;;7.60;2.88;;;;;;;7.84;35.97;99485.59;5049532;28;20496;-41
2023/10/26 08:56:49;;;;;;;9.57;3.10;;;;;;;8.52;34.93;99500.16;5053583;28;20098;-41
2023/10/26 08:59:15;;;;;;;4.20;2.63;;;;;;;8.72;34.14;99484.88;5029457;28;20546;-46
2023/10/26 09:01:46;;;;;;;4.72;2.80;;;;;;;9.07;33.38;99488.94;5051471;28;20039;-40
2023/10/26 09:04:12;;;;;;;4.53;2.47;;;;;;;8.68;33.79;99493.63;5012732;28;20433;-41
2023/10/26 09:06:46;;;;;;;8.00;2.22;;;;;;;8.93;33.72;99484.22;5015730;28;20509;-41
2023/10/26 09:09:14;;;;;;;3.55;2.40;;;;;;;9.48;32.97;99492.81;5036915;28;20210;-40
2023/10/26 09:11:41;;;;;;;5.63;2.47;;;;;;;9.41;32.66;99474.03;5031902;28;20044;-41
2023/10/26 09:14:17;;;;;;;3.35;2.47;;;;;;;9.27;32.78;99476.19;5031291;28;20049;-41
2023/10/26 09:16:45;;;;;;;12.88;2.78;;;;;;;8.90;33.21;99477.34;5046196;28;20475;-42
2023/10/26 09:19:18;;;;;;;2.90;2.17;;;;;;;8.59;33.28;99475.75;5044887;28;20596;-41
2023/10/26 09:21:48;;;;;;;5.20;2.40;;;;;;;7.80;34.42;99477.97;5049147;28;20045;-40
2023/10/26 09:24:21;;;;;;;3.67;2.70;;;;;;;7.54;34.75;99463.09;5032770;28;20049;-42
2023/10/26 09:26:48;;;;;;;11.07;3.20;;;;;;;7.50;35.28;99458.88;5031957;28;20037;-41
2023/10/26 09:29:14;;;;;;;6.65;3.28;;;;;;;8.12;34.61;99461.53;5052233;28;20048;-40
2023/10/26 09:31:54;;;;;;;6.10;2.63;;;;;;;9.10;33.70;99456.00;5037593;28;20424;-41
2023/10/26 09:34:24;;;;;;;6.00;2.20;;;;;;;8.91;33.26;99453.13;5036540;28;20488;-44
2023/10/26 09:37:00;;;;;;;6.90;2.28;;;;;;;8.28;34.09;99455.03;5048219;28;20452;-43
2023/10/26 09:39:36;;;;;;;4.88;2.33;;;;;;;7.93;34.64;99448.25;5032486;28;20045;-42
2023/10/26 09:42:05;;;;;;;3.90;2.35;;;;;;;7.80;34.82;99454.69;5048725;28;20052;-41
2023/10/26 09:44:32;;;;;;;4.53;2.30;;;;;;;7.91;34.87;99429.31;5044911;28;20086;-42
2023/10/26 09:46:59;;;;;;;10.73;2.60;;;;;;;7.73;35.45;99432.44;5040136;28;21801;-42
2023/10/26 09:49:26;;;;;;;3.90;2.30;;;;;;;7.62;35.35;99430.97;5038175;28;20037;-43
2023/10/26 09:51:53;;;;;;;6.85;2.60;;;;;;;7.57;35.48;99421.63;5032121;28;20604;-41
2023/10/26 09:54:22;;;;;;;6.43;2.45;;;;;;;7.36;35.58;99432.53;5020745;28;20509;-40
2023/10/26 09:56:49;;;;;;;;;;;;;;;6.90;35.87;99422.47;5041573;28;20049;-40
2023/10/26 09:59:15;;;;;;;5.00;2.58;;;;;;;6.39;36.42;99436.50;5047067;28;19939;-41
2023/10/26 10:01:41;;;;;;;4.70;2.50;;;;;;;6.35;36.43;99424.56;5047832;28;20513;-39
2023/10/26 10:04:10;;;;;;;5.00;1.95;;;;;;;6.54;36.83;99427.56;5031504;28;20535;-40
2023/10/26 10:06:52;;;;;;;6.63;2.05;;;;;;;6.56;36.48;99419.81;5028953;28;20037;-40
2023/10/26 10:09:21;;;;;;;5.07;2.60;;;;;;;6.16;36.81;99415.50;5031170;28;20702;-39
2023/10/26 10:12:15;;;;;;;7.20;2.58;;;;;;;6.19;37.22;99415.44;5051500;28;20123;-40
2023/10/26 10:14:47;;;;;;;6.63;2.20;;;;;;;6.19;37.42;99405.13;5036765;28;20062;-42
2023/10/26 10:17:14;;;;;;;4.93;2.08;;;;;;;6.26;37.01;99395.50;5040208;28;20076;-40
2023/10/26 10:19:43;;;;;;;3.75;2.42;;;;;;;6.10;37.15;99405.31;5021613;28;20408;-42
2023/10/26 10:22:36;;;;;;;4.40;2.80;;;;;;;5.89;37.82;99403.16;5029202;28;20042;-40
2023/10/26 10:25:02;;;;;;;6.82;3.05;;;;;;;6.34;37.41;99407.38;5039384;28;20152;-42
2023/10/26 10:27:31;;;;;;;5.43;2.08;;;;;;;6.48;36.80;99413.97;5034384;28;20037;-42
2023/10/26 10:29:58;;;;;;;3.90;2.50;;;;;;;6.60;36.25;99403.34;5042499;28;20055;-41
2023/10/26 10:32:42;;;;;;;4.05;2.20;;;;;;;6.74;36.12;99404.75;5053995;28;20523;-41
2023/10/26 10:35:09;;;;;;;3.38;2.13;;;;;;;6.64;36.67;99400.69;5041305;28;20155;-40
2023/10/26 10:37:36;;;;;;;4.10;2.10;;;;;;;6.45;36.69;99401.13;5028404;28;20523;-39
2023/10/26 10:40:16;;;;;;;5.05;3.00;;;;;;;6.42;36.75;99404.63;5031293;28;20524;-41
2023/10/26 10:42:47;;;;;;;4.20;2.30;;;;;;;6.41;36.47;99371.09;5038478;28;20063;-42
2023/10/26 10:45:14;;;;;;;5.40;2.25;;;;;;;6.97;36.09;99405.91;5037564;28;20040;-41
2023/10/26 10:47:40;;;;;;;8.35;2.25;;;;;;;7.30;35.80;99401.66;5044703;28;20064;-42
2023/10/26 10:50:17;;;;;;;5.40;2.28;;;;;;;7.70;35.63;99404.03;5067555;28;20507;-43
2023/10/26 10:52:44;;;;;;;4.22;1.83;;;;;;;7.84;35.80;99401.94;5045943;28;20420;-40
2023/10/26 10:55:10;;;;;;;5.38;2.30;;;;;;;7.69;35.99;99397.19;5048589;28;20051;-42
2023/10/26 10:57:53;;;;;;;4.95;2.42;;;;;;;7.69;35.69;99397.19;5049055;28;20036;-43
2023/10/26 11:00:20;;;;;;;4.03;2.05;;;;;;;7.41;35.16;99391.88;5032111;28;20132;-44
2023/10/26 11:02:49;;;;;;;5.50;2.00;;;;;;;7.38;35.77;99386.81;5047895;28;20531;-43
2023/10/26 11:05:16;;;;;;;;;;;;;;;7.30;35.73;99386.16;5053004;28;20038;-42
2023/10/26 11:07:42;;;;;;;3.20;1.80;;;;;;;7.20;35.60;99375.19;5052970;28;19923;-42
2023/10/26 11:10:09;;;;;;;5.60;2.22;;;;;;;6.97;36.38;99373.16;5053502;28;20534;-43
2023/10/26 11:12:35;;;;;;;5.18;1.88;;;;;;;6.89;36.12;99372.53;5046250;28;20052;-41
2023/10/26 11:15:01;;;;;;;10.02;2.40;;;;;;;6.66;36.66;99375.66;5053738;28;20044;-41
2023/10/26 11:17:34;;;;;;;4.80;2.20;;;;;;;6.35;37.12;99372.91;5051609;28;20040;-40
2023/10/26 11:20:00;;;;;;;4.35;1.83;;;;;;;6.15;37.86;99362.19;5041190;28;20122;-42
2023/10/26 11:22:27;;;;;;;5.32;2.30;;;;;;;5.87;37.93;99361.91;5052171;28;20045;-44
2023/10/26 11:24:53;;;;;;;4.75;2.10;;;;;;;5.20;38.16;99300.47;5043549;28;20132;-41
2023/10/26 11:27:23;;;;;;;8.85;2.40;;;;;;;5.33;38.72;99356.09;5049918;28;20489;-42
2023/10/26 11:30:04;;;;;;;6.70;2.85;;;;;;;5.44;39.28;99355.91;5049201;28;20132;-41
2023/10/26 11:32:32;;;;;;;9.35;2.20;;;;;;;5.45;38.88;99360.16;5036726;28;20124;-43
2023/10/26 11:35:13;;;;;;;7.20;2.42;;;;;;;5.25;39.02;99357.09;5034503;28;20037;-41
2023/10/26 11:37:41;;;;;;;7.68;2.60;;;;;;;5.16;39.23;99355.53;5035210;28;20765;-41
2023/10/26 11:40:09;;;;;;;5.60;2.20;;;;;;;5.14;39.25;99352.13;5046279;28;20075;-42